sensor_id;sensor_type;location;lat;lon;timestamp;pressure;altitude;pressure_sealevel;temperature;humidity
64368;BME280;50692;53.314;-6.300;2023-02-16T00:01:23;100907.97;;;10.47;90.29
64368;BME280;50692;53.314;-6.300;2023-02-16T00:04:18;100894.50;;;10.51;90.57
64368;BME280;50692;53.314;-6.300;2023-02-16T00:07:04;100881.59;;;10.45;90.86
64368;BME280;50692;53.314;-6.300;2023-02-16T00:09:50;100888.59;;;10.64;90.85
64368;BME280;50692;53.314;-6.300;2023-02-16T00:12:35;100878.81;;;10.66;91.82
64368;BME280;50692;53.314;-6.300;2023-02-16T00:15:40;100873.38;;;10.69;92.65
64368;BME280;50692;53.314;-6.300;2023-02-16T00:18:26;100867.28;;;10.67;93.94
64368;BME280;50692;53.314;-6.300;2023-02-16T00:21:12;100866.03;;;10.74;93.78
64368;BME280;50692;53.314;-6.300;2023-02-16T00:23:57;100869.47;;;10.76;94.40
64368;BME280;50692;53.314;-6.300;2023-02-16T00:26:44;100857.34;;;10.72;95.21
64368;BME280;50692;53.314;-6.300;2023-02-16T00:29:32;100849.34;;;10.73;95.59
64368;BME280;50692;53.314;-6.300;2023-02-16T00:32:18;100850.97;;;10.76;96.07
64368;BME280;50692;53.314;-6.300;2023-02-16T00:35:16;100844.75;;;10.77;96.39
64368;BME280;50692;53.314;-6.300;2023-02-16T00:38:02;100834.97;;;10.79;96.78
64368;BME280;50692;53.314;-6.300;2023-02-16T00:40:49;100837.81;;;10.74;97.55
64368;BME280;50692;53.314;-6.300;2023-02-16T00:43:36;100840.84;;;10.84;97.44
64368;BME280;50692;53.314;-6.300;2023-02-16T00:46:21;100831.28;;;10.81;98.13
64368;BME280;50692;53.314;-6.300;2023-02-16T00:49:15;100830.13;;;10.87;98.09
64368;BME280;50692;53.314;-6.300;2023-02-16T00:52:54;100837.72;;;10.93;97.67
64368;BME280;50692;53.314;-6.300;2023-02-16T00:55:20;100829.88;;;10.92;97.92
64368;BME280;50692;53.314;-6.300;2023-02-16T00:58:25;100820.66;;;10.99;97.38
64368;BME280;50692;53.314;-6.300;2023-02-16T01:01:16;100817.97;;;11.00;97.35
64368;BME280;50692;53.314;-6.300;2023-02-16T01:04:05;100812.03;;;10.95;97.74
64368;BME280;50692;53.314;-6.300;2023-02-16T01:06:51;100814.38;;;11.01;97.73
64368;BME280;50692;53.314;-6.300;2023-02-16T01:09:56;100816.06;;;11.02;97.55
64368;BME280;50692;53.314;-6.300;2023-02-16T01:13:00;100816.00;;;11.04;97.17
64368;BME280;50692;53.314;-6.300;2023-02-16T01:15:46;100814.28;;;11.03;97.49
64368;BME280;50692;53.314;-6.300;2023-02-16T01:18:32;100805.84;;;10.96;97.85
64368;BME280;50692;53.314;-6.300;2023-02-16T01:21:18;100819.13;;;10.95;98.55
64368;BME280;50692;53.314;-6.300;2023-02-16T01:24:06;100818.88;;;10.99;98.36
64368;BME280;50692;53.314;-6.300;2023-02-16T01:26:52;100818.19;;;10.96;98.59
64368;BME280;50692;53.314;-6.300;2023-02-16T01:29:38;100811.81;;;11.00;98.64
64368;BME280;50692;53.314;-6.300;2023-02-16T01:32:24;100814.38;;;11.01;98.89
64368;BME280;50692;53.314;-6.300;2023-02-16T01:35:10;100818.97;;;10.98;98.98
64368;BME280;50692;53.314;-6.300;2023-02-16T01:37:56;100805.66;;;10.99;99.13
64368;BME280;50692;53.314;-6.300;2023-02-16T01:40:48;100798.50;;;11.01;98.95
64368;BME280;50692;53.314;-6.300;2023-02-16T01:43:49;100803.78;;;11.01;99.20
64368;BME280;50692;53.314;-6.300;2023-02-16T01:46:51;100802.00;;;11.02;99.34
64368;BME280;50692;53.314;-6.300;2023-02-16T01:49:39;100802.31;;;10.96;100.00
64368;BME280;50692;53.314;-6.300;2023-02-16T01:52:36;100796.88;;;10.99;99.86
64368;BME280;50692;53.314;-6.300;2023-02-16T02:04:43;100807.53;;;10.97;100.00
64368;BME280;50692;53.314;-6.300;2023-02-16T02:07:58;100796.28;;;10.94;100.00
64368;BME280;50692;53.314;-6.300;2023-02-16T02:10:59;100808.94;;;11.04;100.00
64368;BME280;50692;53.314;-6.300;2023-02-16T02:14:08;100805.50;;;11.02;100.00
64368;BME280;50692;53.314;-6.300;2023-02-16T02:19:47;100799.66;;;10.96;100.00
64368;BME280;50692;53.314;-6.300;2023-02-16T02:32:37;100800.47;;;10.98;100.00
64368;BME280;50692;53.314;-6.300;2023-02-16T02:35:54;100793.22;;;11.01;100.00
64368;BME280;50692;53.314;-6.300;2023-02-16T02:41:52;100773.16;;;10.97;100.00
64368;BME280;50692;53.314;-6.300;2023-02-16T02:44:55;100785.44;;;10.98;100.00
64368;BME280;50692;53.314;-6.300;2023-02-16T02:47:45;100780.25;;;10.97;100.00
64368;BME280;50692;53.314;-6.300;2023-02-16T02:50:50;100784.44;;;11.01;100.00
64368;BME280;50692;53.314;-6.300;2023-02-16T03:00:22;100800.72;;;11.09;100.00
64368;BME280;50692;53.314;-6.300;2023-02-16T03:03:50;100798.19;;;11.08;100.00
64368;BME280;50692;53.314;-6.300;2023-02-16T03:06:42;100797.41;;;11.05;100.00
64368;BME280;50692;53.314;-6.300;2023-02-16T03:09:30;100810.03;;;11.00;100.00
64368;BME280;50692;53.314;-6.300;2023-02-16T03:12:16;100831.63;;;11.09;100.00
64368;BME280;50692;53.314;-6.300;2023-02-16T03:15:21;100812.72;;;10.99;100.00
64368;BME280;50692;53.314;-6.300;2023-02-16T03:18:09;100825.38;;;11.10;100.00
64368;BME280;50692;53.314;-6.300;2023-02-16T03:21:16;100825.31;;;11.11;100.00
64368;BME280;50692;53.314;-6.300;2023-02-16T03:24:25;100832.31;;;11.12;100.00
64368;BME280;50692;53.314;-6.300;2023-02-16T03:27:39;100822.75;;;11.10;100.00
64368;BME280;50692;53.314;-6.300;2023-02-16T03:30:45;100828.88;;;11.10;100.00
64368;BME280;50692;53.314;-6.300;2023-02-16T03:33:32;100841.88;;;11.15;100.00
64368;BME280;50692;53.314;-6.300;2023-02-16T03:36:18;100846.06;;;11.19;100.00
64368;BME280;50692;53.314;-6.300;2023-02-16T03:39:04;100849.31;;;11.24;100.00
64368;BME280;50692;53.314;-6.300;2023-02-16T03:41:51;100827.56;;;11.19;100.00
64368;BME280;50692;53.314;-6.300;2023-02-16T03:44:37;100827.03;;;11.28;100.00
64368;BME280;50692;53.314;-6.300;2023-02-16T03:47:23;100821.44;;;11.34;100.00
64368;BME280;50692;53.314;-6.300;2023-02-16T03:50:09;100813.50;;;11.34;100.00
64368;BME280;50692;53.314;-6.300;2023-02-16T03:52:55;100816.41;;;11.45;100.00
64368;BME280;50692;53.314;-6.300;2023-02-16T03:55:53;100808.28;;;11.48;100.00
64368;BME280;50692;53.314;-6.300;2023-02-16T03:58:39;100810.19;;;11.46;100.00
64368;BME280;50692;53.314;-6.300;2023-02-16T04:01:25;100804.28;;;11.41;100.00
64368;BME280;50692;53.314;-6.300;2023-02-16T04:04:11;100811.94;;;11.46;100.00
64368;BME280;50692;53.314;-6.300;2023-02-16T04:06:57;100812.38;;;11.38;100.00
64368;BME280;50692;53.314;-6.300;2023-02-16T04:09:43;100815.03;;;11.38;100.00
64368;BME280;50692;53.314;-6.300;2023-02-16T04:12:28;100819.56;;;11.36;100.00
64368;BME280;50692;53.314;-6.300;2023-02-16T04:15:23;100812.06;;;11.28;100.00
64368;BME280;50692;53.314;-6.300;2023-02-16T04:18:10;100814.00;;;11.25;100.00
64368;BME280;50692;53.314;-6.300;2023-02-16T04:20:56;100819.88;;;11.30;100.00
64368;BME280;50692;53.314;-6.300;2023-02-16T04:23:42;100815.38;;;11.32;100.00
64368;BME280;50692;53.314;-6.300;2023-02-16T04:26:27;100816.13;;;11.34;100.00
64368;BME280;50692;53.314;-6.300;2023-02-16T04:29:14;100818.94;;;11.31;100.00
64368;BME280;50692;53.314;-6.300;2023-02-16T04:32:00;100819.72;;;11.33;100.00
64368;BME280;50692;53.314;-6.300;2023-02-16T04:34:45;100830.91;;;11.38;100.00
64368;BME280;50692;53.314;-6.300;2023-02-16T04:37:32;100816.81;;;11.38;100.00
64368;BME280;50692;53.314;-6.300;2023-02-16T04:40:17;100830.41;;;11.47;100.00
64368;BME280;50692;53.314;-6.300;2023-02-16T04:43:04;100824.19;;;11.48;100.00
64368;BME280;50692;53.314;-6.300;2023-02-16T04:45:50;100841.53;;;11.54;100.00
64368;BME280;50692;53.314;-6.300;2023-02-16T04:48:36;100841.44;;;11.56;100.00
64368;BME280;50692;53.314;-6.300;2023-02-16T04:51:22;100843.06;;;11.58;100.00
64368;BME280;50692;53.314;-6.300;2023-02-16T04:54:08;100839.91;;;11.51;100.00
64368;BME280;50692;53.314;-6.300;2023-02-16T04:56:54;100850.16;;;11.58;100.00
64368;BME280;50692;53.314;-6.300;2023-02-16T04:59:39;100850.84;;;11.61;100.00
64368;BME280;50692;53.314;-6.300;2023-02-16T05:02:25;100851.00;;;11.58;100.00
64368;BME280;50692;53.314;-6.300;2023-02-16T05:05:12;100858.84;;;11.60;100.00
64368;BME280;50692;53.314;-6.300;2023-02-16T05:07:58;100856.19;;;11.60;100.00
64368;BME280;50692;53.314;-6.300;2023-02-16T05:10:44;100854.59;;;11.57;100.00
64368;BME280;50692;53.314;-6.300;2023-02-16T05:13:30;100864.31;;;11.57;100.00
64368;BME280;50692;53.314;-6.300;2023-02-16T05:16:34;100874.91;;;11.57;100.00
64368;BME280;50692;53.314;-6.300;2023-02-16T05:19:20;100888.13;;;11.57;100.00
64368;BME280;50692;53.314;-6.300;2023-02-16T05:22:07;100884.56;;;11.58;100.00
64368;BME280;50692;53.314;-6.300;2023-02-16T05:24:53;100872.25;;;11.57;100.00
64368;BME280;50692;53.314;-6.300;2023-02-16T05:27:39;100873.19;;;11.56;100.00
64368;BME280;50692;53.314;-6.300;2023-02-16T05:30:24;100867.22;;;11.52;100.00
64368;BME280;50692;53.314;-6.300;2023-02-16T05:33:10;100864.50;;;11.53;100.00
64368;BME280;50692;53.314;-6.300;2023-02-16T05:35:56;100869.97;;;11.50;100.00
64368;BME280;50692;53.314;-6.300;2023-02-16T05:38:42;100882.41;;;11.48;100.00
64368;BME280;50692;53.314;-6.300;2023-02-16T05:41:28;100888.41;;;11.52;100.00
64368;BME280;50692;53.314;-6.300;2023-02-16T05:44:14;100891.03;;;11.52;100.00
64368;BME280;50692;53.314;-6.300;2023-02-16T05:47:00;100903.31;;;11.53;100.00
64368;BME280;50692;53.314;-6.300;2023-02-16T05:49:46;100905.97;;;11.53;100.00
64368;BME280;50692;53.314;-6.300;2023-02-16T05:52:32;100916.56;;;11.53;100.00
64368;BME280;50692;53.314;-6.300;2023-02-16T05:55:18;100911.47;;;11.50;100.00
64368;BME280;50692;53.314;-6.300;2023-02-16T05:58:04;100924.34;;;11.56;100.00
64368;BME280;50692;53.314;-6.300;2023-02-16T06:00:49;100935.03;;;11.55;100.00
64368;BME280;50692;53.314;-6.300;2023-02-16T06:03:35;100945.09;;;11.48;100.00
64368;BME280;50692;53.314;-6.300;2023-02-16T06:06:21;100951.94;;;11.52;100.00
64368;BME280;50692;53.314;-6.300;2023-02-16T06:09:07;100967.81;;;11.52;100.00
64368;BME280;50692;53.314;-6.300;2023-02-16T06:11:53;100961.56;;;11.53;100.00
64368;BME280;50692;53.314;-6.300;2023-02-16T06:14:39;100968.66;;;11.52;100.00
64368;BME280;50692;53.314;-6.300;2023-02-16T06:17:25;100972.09;;;11.55;100.00
64368;BME280;50692;53.314;-6.300;2023-02-16T06:20:11;100967.75;;;11.53;100.00
64368;BME280;50692;53.314;-6.300;2023-02-16T06:22:56;100972.16;;;11.53;100.00
64368;BME280;50692;53.314;-6.300;2023-02-16T06:25:44;100965.09;;;11.53;100.00
64368;BME280;50692;53.314;-6.300;2023-02-16T06:28:30;100962.34;;;11.55;100.00
64368;BME280;50692;53.314;-6.300;2023-02-16T06:31:15;100953.97;;;11.47;100.00
64368;BME280;50692;53.314;-6.300;2023-02-16T06:34:01;100971.56;;;11.48;100.00
64368;BME280;50692;53.314;-6.300;2023-02-16T06:36:48;100958.78;;;11.39;100.00
64368;BME280;50692;53.314;-6.300;2023-02-16T06:39:34;100968.13;;;11.46;100.00
64368;BME280;50692;53.314;-6.300;2023-02-16T06:42:19;100978.09;;;11.41;100.00
64368;BME280;50692;53.314;-6.300;2023-02-16T06:45:05;100972.13;;;11.37;100.00
64368;BME280;50692;53.314;-6.300;2023-02-16T06:47:51;100987.00;;;11.40;100.00
64368;BME280;50692;53.314;-6.300;2023-02-16T06:50:37;100977.41;;;11.37;100.00
64368;BME280;50692;53.314;-6.300;2023-02-16T06:53:23;101000.28;;;11.38;100.00
64368;BME280;50692;53.314;-6.300;2023-02-16T06:56:09;100975.00;;;11.33;100.00
64368;BME280;50692;53.314;-6.300;2023-02-16T06:58:55;100991.75;;;11.33;100.00
64368;BME280;50692;53.314;-6.300;2023-02-16T07:01:41;100998.75;;;11.34;100.00
64368;BME280;50692;53.314;-6.300;2023-02-16T07:04:27;100996.25;;;11.31;100.00
64368;BME280;50692;53.314;-6.300;2023-02-16T07:07:13;101002.47;;;11.30;100.00
64368;BME280;50692;53.314;-6.300;2023-02-16T07:09:59;100999.84;;;11.30;100.00
64368;BME280;50692;53.314;-6.300;2023-02-16T07:12:46;100994.84;;;11.24;100.00
64368;BME280;50692;53.314;-6.300;2023-02-16T07:15:32;100830.47;;;10.10;100.00
64368;BME280;50692;53.314;-6.300;2023-02-16T07:18:18;101014.47;;;11.20;100.00
64368;BME280;50692;53.314;-6.300;2023-02-16T07:21:04;101013.53;;;11.21;100.00
64368;BME280;50692;53.314;-6.300;2023-02-16T07:23:51;101017.97;;;11.20;100.00
64368;BME280;50692;53.314;-6.300;2023-02-16T07:26:36;101010.03;;;11.20;100.00
64368;BME280;50692;53.314;-6.300;2023-02-16T07:29:23;101010.13;;;11.19;100.00
64368;BME280;50692;53.314;-6.300;2023-02-16T07:32:09;101017.66;;;11.09;100.00
64368;BME280;50692;53.314;-6.300;2023-02-16T07:34:54;101015.94;;;11.08;100.00
64368;BME280;50692;53.314;-6.300;2023-02-16T07:37:40;101018.66;;;11.07;100.00
64368;BME280;50692;53.314;-6.300;2023-02-16T07:40:28;101029.25;;;11.07;100.00
64368;BME280;50692;53.314;-6.300;2023-02-16T07:43:13;101032.75;;;11.07;100.00
64368;BME280;50692;53.314;-6.300;2023-02-16T07:46:00;101019.53;;;11.07;100.00
64368;BME280;50692;53.314;-6.300;2023-02-16T07:48:47;101019.44;;;11.09;100.00
64368;BME280;50692;53.314;-6.300;2023-02-16T07:51:33;101015.25;;;11.04;100.00
64368;BME280;50692;53.314;-6.300;2023-02-16T07:54:19;101026.78;;;11.03;100.00
64368;BME280;50692;53.314;-6.300;2023-02-16T07:57:05;101040.75;;;11.05;100.00
64368;BME280;50692;53.314;-6.300;2023-02-16T07:59:52;101053.84;;;11.09;100.00
64368;BME280;50692;53.314;-6.300;2023-02-16T08:02:38;101058.19;;;11.10;100.00
64368;BME280;50692;53.314;-6.300;2023-02-16T08:05:24;101062.78;;;11.06;100.00
64368;BME280;50692;53.314;-6.300;2023-02-16T08:08:10;101074.78;;;11.13;100.00
64368;BME280;50692;53.314;-6.300;2023-02-16T08:10:56;101073.16;;;11.11;100.00
64368;BME280;50692;53.314;-6.300;2023-02-16T08:13:42;101089.03;;;11.11;100.00
64368;BME280;50692;53.314;-6.300;2023-02-16T08:16:28;101089.09;;;11.09;100.00
64368;BME280;50692;53.314;-6.300;2023-02-16T08:19:14;101079.69;;;11.03;100.00
64368;BME280;50692;53.314;-6.300;2023-02-16T08:22:00;101099.66;;;11.09;100.00
64368;BME280;50692;53.314;-6.300;2023-02-16T08:24:49;101117.56;;;11.04;100.00
64368;BME280;50692;53.314;-6.300;2023-02-16T08:27:35;101121.81;;;11.07;100.00
64368;BME280;50692;53.314;-6.300;2023-02-16T08:30:21;101139.28;;;11.11;100.00
64368;BME280;50692;53.314;-6.300;2023-02-16T08:33:09;101136.78;;;11.08;100.00
64368;BME280;50692;53.314;-6.300;2023-02-16T08:35:55;101139.50;;;11.06;100.00
64368;BME280;50692;53.314;-6.300;2023-02-16T08:38:40;101148.84;;;11.13;100.00
64368;BME280;50692;53.314;-6.300;2023-02-16T08:41:33;101155.06;;;11.12;100.00
64368;BME280;50692;53.314;-6.300;2023-02-16T08:44:20;101155.94;;;11.13;100.00
64368;BME280;50692;53.314;-6.300;2023-02-16T08:47:06;101156.78;;;11.13;100.00
64368;BME280;50692;53.314;-6.300;2023-02-16T08:49:54;101150.50;;;11.16;100.00
64368;BME280;50692;53.314;-6.300;2023-02-16T08:52:40;101154.78;;;11.18;100.00
64368;BME280;50692;53.314;-6.300;2023-02-16T08:55:26;101153.16;;;11.16;100.00
64368;BME280;50692;53.314;-6.300;2023-02-16T08:58:12;101161.31;;;11.11;100.00
64368;BME280;50692;53.314;-6.300;2023-02-16T09:01:03;101161.09;;;11.16;100.00
64368;BME280;50692;53.314;-6.300;2023-02-16T09:03:49;101165.53;;;11.15;100.00
64368;BME280;50692;53.314;-6.300;2023-02-16T09:06:36;101165.66;;;11.12;100.00
64368;BME280;50692;53.314;-6.300;2023-02-16T09:09:23;101163.09;;;11.11;100.00
64368;BME280;50692;53.314;-6.300;2023-02-16T09:12:08;101164.59;;;11.16;100.00
64368;BME280;50692;53.314;-6.300;2023-02-16T09:14:54;101158.81;;;11.08;100.00
64368;BME280;50692;53.314;-6.300;2023-02-16T09:17:41;101169.31;;;11.10;100.00
64368;BME280;50692;53.314;-6.300;2023-02-16T09:20:28;101158.59;;;10.94;100.00
64368;BME280;50692;53.314;-6.300;2023-02-16T09:23:14;101185.91;;;10.94;100.00
64368;BME280;50692;53.314;-6.300;2023-02-16T09:26:00;101180.28;;;10.83;100.00
64368;BME280;50692;53.314;-6.300;2023-02-16T09:28:52;101190.13;;;10.79;100.00
64368;BME280;50692;53.314;-6.300;2023-02-16T09:31:38;101172.16;;;10.67;100.00
64368;BME280;50692;53.314;-6.300;2023-02-16T09:34:24;101190.13;;;10.79;100.00
64368;BME280;50692;53.314;-6.300;2023-02-16T09:37:12;101197.41;;;10.74;100.00
64368;BME280;50692;53.314;-6.300;2023-02-16T09:39:59;101193.91;;;10.74;100.00
64368;BME280;50692;53.314;-6.300;2023-02-16T09:43:07;101196.50;;;10.75;100.00
64368;BME280;50692;53.314;-6.300;2023-02-16T09:45:58;101203.13;;;10.65;100.00
64368;BME280;50692;53.314;-6.300;2023-02-16T09:48:46;101198.69;;;10.66;100.00
64368;BME280;50692;53.314;-6.300;2023-02-16T09:51:38;101213.56;;;10.68;100.00
64368;BME280;50692;53.314;-6.300;2023-02-16T09:54:46;101217.47;;;10.60;100.00
64368;BME280;50692;53.314;-6.300;2023-02-16T09:57:38;101225.97;;;10.66;100.00
64368;BME280;50692;53.314;-6.300;2023-02-16T10:09:08;101249.75;;;10.47;100.00
64368;BME280;50692;53.314;-6.300;2023-02-16T10:12:03;101272.34;;;10.54;100.00
64368;BME280;50692;53.314;-6.300;2023-02-16T10:14:59;101278.81;;;10.47;100.00
64368;BME280;50692;53.314;-6.300;2023-02-16T10:17:54;101277.25;;;10.43;100.00
64368;BME280;50692;53.314;-6.300;2023-02-16T10:20:47;101276.38;;;10.43;100.00
64368;BME280;50692;53.314;-6.300;2023-02-16T10:23:45;101285.13;;;10.64;100.00
64368;BME280;50692;53.314;-6.300;2023-02-16T10:26:38;101297.97;;;10.73;100.00
64368;BME280;50692;53.314;-6.300;2023-02-16T10:29:27;101282.50;;;10.64;100.00
64368;BME280;50692;53.314;-6.300;2023-02-16T10:32:29;101297.25;;;10.69;99.66
64368;BME280;50692;53.314;-6.300;2023-02-16T10:35:23;101288.66;;;10.64;99.69
64368;BME280;50692;53.314;-6.300;2023-02-16T10:44:19;101309.59;;;10.69;99.06
64368;BME280;50692;53.314;-6.300;2023-02-16T10:47:16;101307.09;;;10.66;99.20
64368;BME280;50692;53.314;-6.300;2023-02-16T10:50:17;101292.50;;;10.57;98.64
64368;BME280;50692;53.314;-6.300;2023-02-16T10:53:20;101312.38;;;10.66;98.70
64368;BME280;50692;53.314;-6.300;2023-02-16T10:56:22;101308.78;;;10.67;98.84
64368;BME280;50692;53.314;-6.300;2023-02-16T10:59:42;101295.53;;;10.68;98.41
64368;BME280;50692;53.314;-6.300;2023-02-16T11:02:40;101294.25;;;10.77;98.83
64368;BME280;50692;53.314;-6.300;2023-02-16T11:05:36;101295.06;;;10.79;98.37
64368;BME280;50692;53.314;-6.300;2023-02-16T11:08:22;101281.69;;;10.82;97.85
64368;BME280;50692;53.314;-6.300;2023-02-16T11:11:11;101281.34;;;10.90;97.41
64368;BME280;50692;53.314;-6.300;2023-02-16T11:14:00;101284.34;;;11.01;96.89
64368;BME280;50692;53.314;-6.300;2023-02-16T11:16:47;101274.34;;;11.08;95.92
64368;BME280;50692;53.314;-6.300;2023-02-16T11:19:34;101272.34;;;11.13;95.31
64368;BME280;50692;53.314;-6.300;2023-02-16T11:22:37;101283.41;;;11.21;94.47
64368;BME280;50692;53.314;-6.300;2023-02-16T11:25:24;101282.38;;;11.25;93.86
64368;BME280;50692;53.314;-6.300;2023-02-16T11:28:24;101279.38;;;11.33;92.61
64368;BME280;50692;53.314;-6.300;2023-02-16T11:31:31;101276.63;;;11.34;92.16
64368;BME280;50692;53.314;-6.300;2023-02-16T11:37:33;101288.09;;;11.53;91.08
64368;BME280;50692;53.314;-6.300;2023-02-16T11:40:26;101289.41;;;11.62;90.44
64368;BME280;50692;53.314;-6.300;2023-02-16T11:43:16;101290.13;;;11.66;88.92
64368;BME280;50692;53.314;-6.300;2023-02-16T11:46:05;101271.75;;;11.63;88.61
64368;BME280;50692;53.314;-6.300;2023-02-16T11:48:52;101298.41;;;11.77;88.28
64368;BME280;50692;53.314;-6.300;2023-02-16T11:51:38;101298.34;;;11.79;87.97
64368;BME280;50692;53.314;-6.300;2023-02-16T11:54:24;101301.84;;;11.79;87.74
64368;BME280;50692;53.314;-6.300;2023-02-16T11:57:12;101301.00;;;11.79;87.58
64368;BME280;50692;53.314;-6.300;2023-02-16T12:00:01;101301.72;;;11.82;87.33
64368;BME280;50692;53.314;-6.300;2023-02-16T12:05:53;101277.81;;;11.84;86.06
64368;BME280;50692;53.314;-6.300;2023-02-16T12:11:59;101251.31;;;11.84;84.03
64368;BME280;50692;53.314;-6.300;2023-02-16T12:15:20;101268.00;;;12.03;83.16
64368;BME280;50692;53.314;-6.300;2023-02-16T12:18:26;101269.91;;;12.18;82.04
64368;BME280;50692;53.314;-6.300;2023-02-16T12:24:17;101270.25;;;12.45;80.72
64368;BME280;50692;53.314;-6.300;2023-02-16T12:27:17;101257.75;;;12.98;78.92
64368;BME280;50692;53.314;-6.300;2023-02-16T12:36:17;101266.06;;;13.08;73.67
64368;BME280;50692;53.314;-6.300;2023-02-16T12:39:17;101260.94;;;13.05;74.26
64368;BME280;50692;53.314;-6.300;2023-02-16T12:45:25;101256.63;;;13.18;74.31
64368;BME280;50692;53.314;-6.300;2023-02-16T12:51:21;101243.50;;;13.32;73.29
64368;BME280;50692;53.314;-6.300;2023-02-16T12:54:27;101249.41;;;13.37;73.66
64368;BME280;50692;53.314;-6.300;2023-02-16T12:57:18;101256.84;;;13.47;73.52
64368;BME280;50692;53.314;-6.300;2023-02-16T13:00:19;101239.63;;;14.00;71.62
64368;BME280;50692;53.314;-6.300;2023-02-16T13:06:44;101240.91;;;14.96;65.35
64368;BME280;50692;53.314;-6.300;2023-02-16T13:09:43;101230.81;;;15.15;65.11
64368;BME280;50692;53.314;-6.300;2023-02-16T13:13:18;101225.38;;;15.58;64.54
64368;BME280;50692;53.314;-6.300;2023-02-16T13:19:46;101224.16;;;16.16;61.27
64368;BME280;50692;53.314;-6.300;2023-02-16T13:31:43;101206.47;;;15.07;63.58
64368;BME280;50692;53.314;-6.300;2023-02-16T13:46:30;101187.13;;;14.03;70.06
64368;BME280;50692;53.314;-6.300;2023-02-16T13:49:32;101189.47;;;13.79;70.41
64368;BME280;50692;53.314;-6.300;2023-02-16T13:52:29;101189.81;;;13.73;70.72
64368;BME280;50692;53.314;-6.300;2023-02-16T13:55:35;101185.66;;;13.53;71.20
64368;BME280;50692;53.314;-6.300;2023-02-16T13:58:29;101179.84;;;13.47;71.63
64368;BME280;50692;53.314;-6.300;2023-02-16T14:09:52;101176.75;;;13.84;70.65
64368;BME280;50692;53.314;-6.300;2023-02-16T14:12:38;101157.78;;;13.90;69.92
64368;BME280;50692;53.314;-6.300;2023-02-16T14:15:25;101160.22;;;14.24;69.63
64368;BME280;50692;53.314;-6.300;2023-02-16T14:18:40;101156.34;;;14.72;68.17
64368;BME280;50692;53.314;-6.300;2023-02-16T14:24:34;101170.38;;;15.30;65.65
64368;BME280;50692;53.314;-6.300;2023-02-16T14:36:22;101151.53;;;15.33;65.65
64368;BME280;50692;53.314;-6.300;2023-02-16T14:39:11;101143.38;;;15.49;64.23
64368;BME280;50692;53.314;-6.300;2023-02-16T14:42:12;101137.69;;;15.14;65.38
64368;BME280;50692;53.314;-6.300;2023-02-16T14:54:06;101112.66;;;14.62;68.90
64368;BME280;50692;53.314;-6.300;2023-02-16T14:57:03;101113.66;;;14.45;69.94
64368;BME280;50692;53.314;-6.300;2023-02-16T14:59:57;101098.03;;;14.26;71.14
64368;BME280;50692;53.314;-6.300;2023-02-16T15:03:03;101090.91;;;14.12;72.52
64368;BME280;50692;53.314;-6.300;2023-02-16T15:06:02;101095.06;;;14.31;72.83
64368;BME280;50692;53.314;-6.300;2023-02-16T15:08:56;101091.19;;;14.36;72.74
64368;BME280;50692;53.314;-6.300;2023-02-16T15:11:54;101099.16;;;14.22;73.54
64368;BME280;50692;53.314;-6.300;2023-02-16T15:15:02;101078.16;;;14.03;75.04
64368;BME280;50692;53.314;-6.300;2023-02-16T15:17:49;101079.00;;;14.04;75.21
64368;BME280;50692;53.314;-6.300;2023-02-16T15:20:37;101064.00;;;13.88;75.57
64368;BME280;50692;53.314;-6.300;2023-02-16T15:23:29;101066.84;;;14.00;75.98
64368;BME280;50692;53.314;-6.300;2023-02-16T15:26:21;101064.88;;;14.03;76.02
64368;BME280;50692;53.314;-6.300;2023-02-16T15:29:19;101061.84;;;13.95;76.88
64368;BME280;50692;53.314;-6.300;2023-02-16T15:32:06;101055.38;;;13.85;77.46
64368;BME280;50692;53.314;-6.300;2023-02-16T15:34:53;101060.03;;;13.81;78.74
64368;BME280;50692;53.314;-6.300;2023-02-16T15:37:39;101051.88;;;13.99;78.87
64368;BME280;50692;53.314;-6.300;2023-02-16T15:40:26;101050.34;;;14.23;77.95
64368;BME280;50692;53.314;-6.300;2023-02-16T15:46:06;101026.19;;;14.55;76.18
64368;BME280;50692;53.314;-6.300;2023-02-16T15:49:27;101047.94;;;14.47;77.06
64368;BME280;50692;53.314;-6.300;2023-02-16T15:52:36;101035.31;;;14.65;76.76
64368;BME280;50692;53.314;-6.300;2023-02-16T15:55:24;101039.28;;;14.72;77.00
64368;BME280;50692;53.314;-6.300;2023-02-16T15:58:12;101034.97;;;14.97;76.48
64368;BME280;50692;53.314;-6.300;2023-02-16T16:00:59;100999.00;;;15.04;75.55
64368;BME280;50692;53.314;-6.300;2023-02-16T16:03:46;101037.66;;;15.49;74.15
64368;BME280;50692;53.314;-6.300;2023-02-16T16:06:36;101051.97;;;15.21;75.00
64368;BME280;50692;53.314;-6.300;2023-02-16T16:09:23;101043.31;;;14.78;77.35
64368;BME280;50692;53.314;-6.300;2023-02-16T16:12:13;101048.69;;;14.49;79.66
64368;BME280;50692;53.314;-6.300;2023-02-16T16:15:00;101047.19;;;14.31;80.98
64368;BME280;50692;53.314;-6.300;2023-02-16T16:17:50;101056.88;;;14.18;82.60
64368;BME280;50692;53.314;-6.300;2023-02-16T16:20:39;101037.81;;;14.11;83.32
64368;BME280;50692;53.314;-6.300;2023-02-16T16:23:29;101045.03;;;14.09;83.95
64368;BME280;50692;53.314;-6.300;2023-02-16T16:26:17;101055.75;;;14.07;84.18
64368;BME280;50692;53.314;-6.300;2023-02-16T16:30:06;101048.66;;;14.08;84.84
64368;BME280;50692;53.314;-6.300;2023-02-16T16:32:36;101042.47;;;14.07;85.13
64368;BME280;50692;53.314;-6.300;2023-02-16T16:38:33;101020.44;;;14.05;85.64
64368;BME280;50692;53.314;-6.300;2023-02-16T16:41:26;101018.28;;;13.98;86.34
64368;BME280;50692;53.314;-6.300;2023-02-16T16:45:31;101026.06;;;14.01;86.43
64368;BME280;50692;53.314;-6.300;2023-02-16T16:47:37;101024.63;;;13.95;86.87
64368;BME280;50692;53.314;-6.300;2023-02-16T16:50:30;101018.16;;;13.85;87.43
64368;BME280;50692;53.314;-6.300;2023-02-16T16:56:14;101025.19;;;13.86;88.79